Time;durP1;ratioP1;P1;durP2;ratioP2;P2;SDS_P1;SDS_P2;PMS_P1;PMS_P2;Temp;Humidity;BMP_temperature;BMP_pressure;BME280_temperature;BME280_humidity;BME280_pressure;Samples;Min_cycle;Max_cycle;Signal;HPM_P1;HPM_P2
2022/06/27 00:00:58;;;;;;;24.27;12.25;;;;;;;19.06;65.55;100377.34;4983300;28;20061;-78
2022/06/27 00:03:24;;;;;;;23.05;11.93;;;;;;;19.13;65.74;100387.69;4982346;28;20412;-81
2022/06/27 00:05:50;;;;;;;17.98;10.13;;;;;;;19.10;65.54;100380.72;4988237;28;20166;-80
2022/06/27 00:08:17;;;;;;;25.20;11.68;;;;;;;19.10;65.60;100394.78;4986696;28;20388;-78
2022/06/27 00:10:43;;;;;;;20.63;11.40;;;;;;;19.09;65.77;100387.78;4985361;28;20116;-77
2022/06/27 00:13:09;;;;;;;16.92;11.63;;;;;;;19.08;65.62;100390.50;4990870;28;20100;-79
2022/06/27 00:15:36;;;;;;;18.83;10.65;;;;;;;19.03;65.74;100382.72;4990688;28;20042;-77
2022/06/27 00:18:01;;;;;;;18.40;10.00;;;;;;;19.03;65.94;100377.44;4974766;28;20038;-79
2022/06/27 00:20:27;;;;;;;15.23;9.52;;;;;;;19.13;65.84;100380.63;4975033;28;20049;-78
2022/06/27 00:22:54;;;;;;;18.67;9.00;;;;;;;19.05;65.69;100375.59;4984581;28;20745;-78
2022/06/27 00:25:20;;;;;;;17.95;10.38;;;;;;;19.14;65.98;100392.03;4982822;28;20108;-80
2022/06/27 00:27:46;;;;;;;21.15;9.95;;;;;;;19.14;66.00;100392.88;4965187;28;20046;-78
2022/06/27 00:30:12;;;;;;;64.30;40.65;;;;;;;19.05;65.94;100394.06;4982713;28;20115;-78
2022/06/27 00:32:39;;;;;;;38.67;23.05;;;;;;;19.08;65.68;100408.94;4975255;28;20450;-78
2022/06/27 00:35:08;;;;;;;34.22;19.27;;;;;;;19.04;65.97;100400.25;4995738;28;20031;-79
2022/06/27 00:37:34;;;;;;;29.85;17.17;;;;;;;18.95;66.05;100390.91;4973028;28;20076;-78
2022/06/27 00:40:05;;;;;;;27.17;17.33;;;;;;;18.98;65.88;100395.19;4983485;28;20042;-78
2022/06/27 00:42:31;;;;;;;16.85;11.23;;;;;;;18.91;66.07;100388.38;4970235;28;20193;-77
2022/06/27 00:44:57;;;;;;;24.92;11.82;;;;;;;18.89;66.32;100393.69;4983935;28;20543;-79
2022/06/27 00:47:24;;;;;;;19.63;11.45;;;;;;;18.94;66.41;100397.03;4985179;28;20045;-76
2022/06/27 00:49:51;;;;;;;21.45;11.65;;;;;;;18.86;66.62;100385.91;4959570;28;20046;-78
2022/06/27 00:52:17;;;;;;;17.08;10.05;;;;;;;18.84;66.56;100387.75;4990899;28;20046;-79
2022/06/27 00:54:46;;;;;;;14.55;9.95;;;;;;;18.90;66.70;100395.41;4991046;28;20042;-79
2022/06/27 00:57:15;;;;;;;18.17;9.38;;;;;;;18.86;66.79;100379.78;4992740;28;20668;-77
2022/06/27 00:59:42;;;;;;;19.77;9.10;;;;;;;18.95;67.03;100395.31;4991668;28;20054;-78
2022/06/27 01:02:09;;;;;;;21.58;9.73;;;;;;;18.95;67.04;100387.41;4993316;28;20096;-79
2022/06/27 01:04:36;;;;;;;24.58;12.13;;;;;;;18.94;67.14;100383.88;4993435;28;20046;-78
2022/06/27 01:07:06;;;;;;;19.40;12.55;;;;;;;18.96;66.99;100386.50;4992816;28;20500;-78
2022/06/27 01:09:33;;;;;;;24.70;12.35;;;;;;;18.93;66.86;100382.13;4990312;28;20050;-78
2022/06/27 01:11:59;;;;;;;21.60;12.48;;;;;;;18.96;67.14;100381.22;4990920;28;20188;-77
2022/06/27 01:14:25;;;;;;;22.33;12.63;;;;;;;18.98;67.10;100379.38;4976969;28;20141;-78
2022/06/27 01:16:51;;;;;;;21.85;11.90;;;;;;;19.02;66.93;100378.34;4988071;28;20050;-78
2022/06/27 01:19:18;;;;;;;16.73;11.10;;;;;;;19.02;67.02;100375.72;4987909;28;20049;-79
2022/06/27 01:21:52;;;;;;;22.98;11.93;;;;;;;19.05;67.14;100380.03;4988582;28;20097;-78
2022/06/27 01:24:22;;;;;;;24.10;12.60;;;;;;;19.03;67.19;100376.59;4978773;28;20502;-79
2022/06/27 01:26:49;;;;;;;27.13;12.57;;;;;;;19.14;67.03;100390.25;4988079;28;20124;-80
2022/06/27 01:29:18;;;;;;;27.80;11.93;;;;;;;19.13;67.21;100383.25;4995331;28;20057;-78
2022/06/27 01:31:46;;;;;;;24.40;11.25;;;;;;;19.28;67.13;100395.03;4997502;28;20046;-79
2022/06/27 01:34:13;;;;;;;21.60;10.68;;;;;;;19.23;67.07;100382.03;4978633;28;20149;-78
2022/06/27 01:36:42;;;;;;;20.95;10.95;;;;;;;19.34;67.04;100391.31;4990107;28;20042;-77
2022/06/27 01:39:19;;;;;;;26.40;13.25;;;;;;;19.41;67.04;100395.47;4957635;28;20502;-80
2022/06/27 01:41:51;;;;;;;37.65;22.48;;;;;;;19.49;66.87;100384.63;4972359;28;20049;-80
2022/06/27 01:44:23;;;;;;;34.65;20.83;;;;;;;19.54;66.95;100386.16;4976827;28;20157;-78
2022/06/27 01:46:58;;;;;;;35.35;22.83;;;;;;;19.61;66.71;100388.59;4990126;28;20100;-78
2022/06/27 01:49:24;;;;;;;36.58;21.88;;;;;;;19.64;66.47;100385.84;4958141;28;20530;-78
2022/06/27 01:51:51;;;;;;;32.13;16.13;;;;;;;19.72;66.29;100396.97;4977989;28;20196;-78
2022/06/27 01:54:20;;;;;;;44.50;25.77;;;;;;;19.71;66.37;100389.97;4975853;28;20400;-78
2022/06/27 01:56:49;;;;;;;28.08;16.30;;;;;;;19.79;66.19;100398.44;4969397;28;20054;-80
2022/06/27 01:59:18;;;;;;;26.65;15.32;;;;;;;19.82;66.39;100387.78;4973405;28;20503;-78
2022/06/27 02:01:45;;;;;;;24.98;12.95;;;;;;;19.88;66.26;100389.34;4984789;28;20533;-77
2022/06/27 02:04:14;;;;;;;26.48;16.27;;;;;;;19.87;66.34;100387.59;4958586;28;20363;-78
2022/06/27 02:06:43;;;;;;;32.85;14.32;;;;;;;19.99;66.31;100395.09;4995463;28;20109;-81
2022/06/27 02:09:13;;;;;;;20.83;13.77;;;;;;;19.97;66.13;100369.69;5008636;28;21223;-79
2022/06/27 02:11:42;;;;;;;23.77;15.40;;;;;;;20.09;66.28;100384.16;5007393;28;20108;-79
2022/06/27 02:14:13;;;;;;;24.23;15.98;;;;;;;20.19;66.16;100395.25;4986060;28;20038;-79
2022/06/27 02:16:42;;;;;;;24.50;14.38;;;;;;;20.24;66.03;100387.97;4986110;28;20050;-79
2022/06/27 02:19:09;;;;;;;27.67;18.70;;;;;;;20.28;65.94;100386.94;4986414;28;20053;-80
2022/06/27 02:21:38;;;;;;;26.13;16.70;;;;;;;20.41;66.28;100393.44;4976363;28;20530;-79
2022/06/27 02:24:08;;;;;;;55.60;37.10;;;;;;;20.47;66.21;100389.69;4972674;28;20138;-77
2022/06/27 02:26:35;;;;;;;32.97;22.30;;;;;;;20.61;66.02;100390.00;4986583;28;20118;-79
2022/06/27 02:29:01;;;;;;;29.38;17.60;;;;;;;20.70;65.86;100388.75;4990588;28;20057;-78
2022/06/27 02:31:32;;;;;;;39.20;18.85;;;;;;;20.83;65.32;100386.47;4985119;28;20318;-79
2022/06/27 02:33:58;;;;;;;32.65;18.00;;;;;;;20.92;65.65;100380.81;4988993;28;20061;-78
2022/06/27 02:36:31;;;;;;;34.05;20.35;;;;;;;21.01;65.14;100370.72;4988539;28;20088;-80
2022/06/27 02:39:00;;;;;;;28.52;16.83;;;;;;;21.17;65.13;100377.09;4971246;28;20053;-79
2022/06/27 02:41:31;;;;;;;24.67;11.77;;;;;;;21.26;65.25;100377.59;4985543;28;20089;-79
2022/06/27 02:44:09;;;;;;;30.00;16.73;;;;;;;21.37;65.46;100373.53;4984988;28;20507;-78
2022/06/27 02:46:37;;;;;;;38.47;22.20;;;;;;;21.44;65.16;100378.56;4984434;28;20050;-79
2022/06/27 02:49:03;;;;;;;23.23;14.88;;;;;;;21.61;65.24;100378.69;4980265;28;20130;-80
2022/06/27 02:51:41;;;;;;;31.48;21.90;;;;;;;21.74;65.18;100372.81;4956947;28;20046;-80
2022/06/27 02:54:09;;;;;;;35.03;21.92;;;;;;;21.87;64.86;100373.97;4985001;28;20038;-79
2022/06/27 02:57:13;;;;;;;31.33;16.88;;;;;;;21.88;64.73;100354.50;4985289;28;20407;-79
2022/06/27 02:59:42;;;;;;;29.15;14.85;;;;;;;21.99;64.92;100340.75;4983414;28;20038;-80
2022/06/27 03:02:10;;;;;;;26.05;15.32;;;;;;;22.29;64.53;100373.78;4967240;28;20097;-79
2022/06/27 03:04:58;;;;;;;28.08;14.05;;;;;;;22.43;64.86;100368.69;4987103;28;20042;-80
2022/06/27 03:07:24;;;;;;;26.80;14.40;;;;;;;22.59;64.38;100373.25;4988513;28;20141;-78
2022/06/27 03:09:54;;;;;;;29.83;14.35;;;;;;;22.68;64.88;100357.72;4987129;28;20039;-80
2022/06/27 03:12:19;;;;;;;22.90;12.25;;;;;;;22.76;65.05;100357.31;4984771;28;20038;-80
2022/06/27 03:14:45;;;;;;;36.75;21.95;;;;;;;22.92;64.90;100364.50;4984248;28;20038;-79
2022/06/27 03:17:12;;;;;;;21.77;12.85;;;;;;;23.01;65.32;100354.25;4956931;28;20046;-79
2022/06/27 03:20:05;;;;;;;20.00;14.13;;;;;;;23.20;64.84;100355.94;4982848;28;20357;-78
2022/06/27 03:22:47;;;;;;;22.40;12.05;;;;;;;23.32;64.76;100333.22;4971381;28;20552;-77
2022/06/27 03:25:13;;;;;;;41.17;26.10;;;;;;;23.60;64.33;100359.16;4969946;28;20097;-79
2022/06/27 03:27:40;;;;;;;18.88;11.98;;;;;;;23.75;64.18;100351.28;4981473;28;20046;-79
2022/06/27 03:30:07;;;;;;;46.60;32.63;;;;;;;23.98;63.93;100352.66;4969121;28;20069;-81
2022/06/27 03:32:33;;;;;;;21.10;13.05;;;;;;;24.13;63.66;100355.41;4986921;28;20043;-79
2022/06/27 03:35:03;;;;;;;17.83;11.13;;;;;;;24.26;63.50;100352.91;4970556;28;20043;-79
2022/06/27 03:37:31;;;;;;;27.50;16.35;;;;;;;24.42;62.68;100358.19;4987345;28;20053;-78
2022/06/27 03:39:58;;;;;;;103.82;75.00;;;;;;;24.65;61.92;100363.00;4987371;28;20085;-79
2022/06/27 03:42:26;;;;;;;29.88;21.52;;;;;;;24.84;60.80;100356.63;5011076;28;20048;-78
2022/06/27 03:44:53;;;;;;;27.20;19.35;;;;;;;25.03;59.93;100356.38;5003721;28;20082;-79
2022/06/27 03:47:19;;;;;;;14.75;11.05;;;;;;;25.23;58.55;100367.59;4983866;28;20039;-79
2022/06/27 03:50:15;;;;;;;21.42;11.90;;;;;;;25.36;58.01;100357.06;4982433;28;20100;-79
2022/06/27 03:52:42;;;;;;;15.45;11.75;;;;;;;25.63;57.28;100350.97;4965851;28;20050;-78
2022/06/27 03:55:10;;;;;;;21.52;14.52;;;;;;;25.82;56.22;100358.66;4974323;28;20046;-77
2022/06/27 03:57:50;;;;;;;17.88;11.63;;;;;;;26.01;55.83;100347.66;4972008;28;20096;-79
2022/06/27 04:00:19;;;;;;;17.00;11.00;;;;;;;26.22;55.22;100349.91;4983440;28;20490;-78
2022/06/27 04:02:49;;;;;;;15.98;11.27;;;;;;;26.37;54.55;100348.03;4985652;28;20089;-80
2022/06/27 04:05:32;;;;;;;17.88;9.90;;;;;;;26.56;54.38;100353.00;4991556;28;20213;-79
2022/06/27 04:07:58;;;;;;;21.98;11.27;;;;;;;26.73;54.12;100350.03;4966721;28;20437;-80
2022/06/27 04:10:25;;;;;;;20.65;11.02;;;;;;;26.86;53.61;100351.88;4980620;28;20137;-79
2022/06/27 04:12:51;;;;;;;19.60;11.07;;;;;;;27.01;53.30;100349.97;4984242;28;20061;-80
2022/06/27 04:15:36;;;;;;;17.17;10.60;;;;;;;27.19;53.01;100350.50;4988752;28;20038;-80
2022/06/27 04:18:21;;;;;;;18.75;10.32;;;;;;;27.35;53.04;100359.13;4988966;28;20042;-80
2022/06/27 04:20:59;;;;;;;18.00;10.73;;;;;;;27.44;52.64;100332.75;4986135;28;20046;-80
2022/06/27 04:23:37;;;;;;;56.67;36.15;;;;;;;27.70;52.14;100349.59;4967427;28;20045;-80
2022/06/27 04:26:18;;;;;;;42.42;30.33;;;;;;;27.80;51.62;100339.94;4970526;28;20057;-78
2022/06/27 04:28:45;;;;;;;25.85;17.20;;;;;;;28.03;51.59;100341.88;4968380;28;20034;-78
2022/06/27 04:31:13;;;;;;;21.15;12.82;;;;;;;28.22;51.06;100339.56;4968700;28;20144;-78
2022/06/27 04:33:39;;;;;;;12.60;10.85;;;;;;;28.38;50.41;100338.41;4984247;28;20066;-80
2022/06/27 04:36:05;;;;;;;17.95;11.32;;;;;;;28.56;49.53;100342.38;4966500;28;20077;-80
2022/06/27 04:38:32;;;;;;;16.73;12.13;;;;;;;28.68;49.42;100334.38;4989647;28;20554;-78
2022/06/27 04:41:25;;;;;;;18.55;10.70;;;;;;;28.71;48.96;100320.75;4943719;28;20054;-78
2022/06/27 04:43:53;;;;;;;14.43;10.05;;;;;;;28.85;48.99;100327.75;4986073;28;20066;-79
2022/06/27 04:46:19;;;;;;;15.20;10.98;;;;;;;28.97;48.96;100332.13;4969076;28;20570;-79
2022/06/27 04:48:45;;;;;;;13.35;9.20;;;;;;;29.09;48.76;100335.69;4984536;28;20074;-79
2022/06/27 04:51:13;;;;;;;13.02;8.48;;;;;;;29.31;48.11;100336.66;4978610;28;20137;-79
2022/06/27 04:53:40;;;;;;;12.30;8.68;;;;;;;29.45;47.68;100332.91;4990779;28;20038;-78
2022/06/27 04:56:08;;;;;;;14.38;8.13;;;;;;;29.58;47.18;100328.25;4995149;28;20048;-79
2022/06/27 04:58:35;;;;;;;16.48;9.13;;;;;;;29.68;46.56;100319.47;4984744;28;20045;-79
2022/06/27 05:01:02;;;;;;;14.02;8.35;;;;;;;29.67;46.17;100299.88;4981413;28;20134;-79
2022/06/27 05:03:48;;;;;;;13.90;9.00;;;;;;;29.92;45.78;100311.22;4966663;28;20128;-79
2022/06/27 05:06:19;;;;;;;13.80;8.45;;;;;;;30.02;45.22;100300.63;4982189;28;20503;-78
2022/06/27 05:08:45;;;;;;;11.55;8.77;;;;;;;30.24;45.01;100318.47;4984648;28;20038;-78
2022/06/27 05:11:13;;;;;;;12.20;8.20;;;;;;;30.33;44.95;100308.78;4973491;28;20039;-79
2022/06/27 05:13:40;;;;;;;11.27;7.90;;;;;;;30.50;44.67;100307.38;4987206;28;20019;-80
2022/06/27 05:16:17;;;;;;;8.63;7.82;;;;;;;30.59;44.17;100301.22;5004543;28;20133;-80
2022/06/27 05:18:43;;;;;;;11.43;7.80;;;;;;;30.80;43.71;100305.72;4999312;28;20045;-79
2022/06/27 05:21:10;;;;;;;9.38;8.20;;;;;;;30.84;43.46;100293.75;4973862;28;20142;-78
2022/06/27 05:23:37;;;;;;;9.50;7.88;;;;;;;31.01;42.97;100299.47;4972502;28;20682;-78
2022/06/27 05:26:05;;;;;;;10.35;7.93;;;;;;;31.21;42.32;100289.69;4985057;28;20058;-79
2022/06/27 05:28:31;;;;;;;8.50;7.55;;;;;;;31.25;42.30;100293.81;4988970;28;20168;-81
2022/06/27 05:30:58;;;;;;;10.38;7.90;;;;;;;31.36;41.90;100285.63;4983613;28;20535;-79
2022/06/27 05:33:24;;;;;;;10.82;8.10;;;;;;;31.42;41.46;100289.63;4976983;28;20057;-79
2022/06/27 05:35:52;;;;;;;11.98;7.32;;;;;;;31.41;41.48;100274.50;5002763;28;20070;-79
2022/06/27 05:38:19;;;;;;;11.88;7.97;;;;;;;31.53;41.30;100273.38;4977544;28;20038;-81
2022/06/27 05:40:46;;;;;;;9.45;8.38;;;;;;;31.67;40.61;100284.69;4997393;28;20045;-79
2022/06/27 05:43:15;;;;;;;8.93;8.05;;;;;;;31.83;40.42;100295.81;4983723;28;20186;-78
2022/06/27 05:45:42;;;;;;;9.77;7.30;;;;;;;31.89;39.98;100278.25;4982595;28;20042;-79
2022/06/27 05:48:26;;;;;;;7.70;7.00;;;;;;;31.98;40.35;100281.94;4985932;28;20061;-78
2022/06/27 05:51:10;;;;;;;11.40;7.82;;;;;;;32.23;39.69;100293.13;4998600;28;20046;-77
2022/06/27 05:53:38;;;;;;;9.38;7.35;;;;;;;32.65;39.22;100279.34;4977841;28;20042;-79
2022/06/27 05:56:06;;;;;;;9.48;7.53;;;;;;;33.72;38.34;100276.31;4991913;28;20062;-81
2022/06/27 05:58:34;;;;;;;8.50;7.57;;;;;;;35.43;36.56;100268.69;4996451;28;20031;-78
2022/06/27 06:01:01;;;;;;;7.60;6.70;;;;;;;37.32;33.94;100270.59;4991363;28;20046;-80
2022/06/27 06:03:28;;;;;;;8.27;7.43;;;;;;;39.08;31.94;100267.88;4988819;28;20058;-78
2022/06/27 06:05:56;;;;;;;9.45;7.22;;;;;;;40.62;29.10;100276.72;4985488;28;20120;-79
2022/06/27 06:08:23;;;;;;;9.23;7.28;;;;;;;41.90;27.00;100258.13;4988209;28;20039;-82
2022/06/27 06:10:51;;;;;;;8.02;7.22;;;;;;;43.07;25.79;100267.63;4976336;28;20444;-80
2022/06/27 06:13:20;;;;;;;7.10;6.40;;;;;;;44.00;24.50;100268.13;4984849;28;20042;-79
2022/06/27 06:15:47;;;;;;;7.43;6.75;;;;;;;44.79;23.20;100270.34;4984252;28;20061;-80
2022/06/27 06:18:14;;;;;;;7.43;6.57;;;;;;;45.65;22.24;100274.94;4979853;28;20428;-82
2022/06/27 06:20:46;;;;;;;7.05;6.40;;;;;;;46.55;20.47;100274.06;4984439;28;20107;-81
2022/06/27 06:23:12;;;;;;;7.32;6.63;;;;;;;46.94;20.13;100265.28;4985373;28;20046;-79
2022/06/27 06:25:39;;;;;;;10.73;7.45;;;;;;;47.69;19.33;100266.13;4987273;28;20431;-82
2022/06/27 06:28:06;;;;;;;9.18;7.60;;;;;;;48.23;18.56;100259.28;4989351;28;20499;-78
2022/06/27 06:30:33;;;;;;;10.00;6.85;;;;;;;48.94;17.69;100260.47;4954329;28;20622;-81
2022/06/27 06:33:04;;;;;;;7.20;6.60;;;;;;;49.27;17.40;100267.75;4988155;28;20079;-81
2022/06/27 06:35:35;;;;;;;7.43;6.82;;;;;;;49.55;16.40;100263.09;4983285;28;20046;-82
2022/06/27 06:38:02;;;;;;;7.53;6.80;;;;;;;49.79;16.21;100268.28;4983345;28;20472;-82
2022/06/27 06:40:30;;;;;;;7.65;6.90;;;;;;;50.13;15.49;100265.19;4968687;28;20049;-84
2022/06/27 06:42:57;;;;;;;7.03;6.43;;;;;;;50.44;15.37;100264.53;4970726;28;20830;-80
2022/06/27 06:45:44;;;;;;;7.55;6.90;;;;;;;50.80;15.46;100264.72;4984895;28;20057;-83
2022/06/27 06:48:16;;;;;;;;;;;;;;;51.06;14.92;100267.59;4991029;28;20065;-82
2022/06/27 06:50:43;;;;;;;7.45;6.20;;;;;;;51.49;14.80;100262.69;4992589;28;19932;-80
2022/06/27 06:53:10;;;;;;;8.98;7.90;;;;;;;51.66;13.79;100236.66;4993894;28;20038;-83
2022/06/27 06:55:36;;;;;;;7.78;7.07;;;;;;;52.01;14.07;100251.56;4979079;28;20419;-84
2022/06/27 06:58:02;;;;;;;7.20;6.57;;;;;;;52.76;13.50;100258.28;4991989;28;20495;-84
2022/06/27 07:00:29;;;;;;;7.47;6.88;;;;;;;52.89;12.47;100262.34;4973913;28;20096;-82
2022/06/27 07:02:56;;;;;;;7.90;6.43;;;;;;;52.69;12.58;100258.59;4982385;28;20042;-82
2022/06/27 07:05:22;;;;;;;9.43;7.22;;;;;;;52.58;12.24;100245.88;4978972;28;20500;-79
2022/06/27 07:07:51;;;;;;;7.78;7.18;;;;;;;53.07;11.84;100252.56;4986875;28;20125;-81
2022/06/27 07:10:18;;;;;;;;;;;;;;;53.40;12.41;100268.75;4987437;28;20069;-81
2022/06/27 07:12:45;;;;;;;7.40;6.80;;;;;;;53.42;12.29;100270.09;4985351;28;20064;-82
2022/06/27 07:15:12;;;;;;;7.55;6.75;;;;;;;53.90;11.94;100263.84;4987273;28;20098;-81
2022/06/27 07:17:42;;;;;;;7.03;6.32;;;;;;;54.49;11.68;100258.22;4986064;28;20050;-80
2022/06/27 07:20:10;;;;;;;7.70;6.95;;;;;;;54.88;11.50;100269.41;4969762;28;20046;-81
2022/06/27 07:22:36;;;;;;;9.25;7.70;;;;;;;54.92;10.73;100254.59;4984653;28;20145;-80
2022/06/27 07:25:02;;;;;;;7.05;6.47;;;;;;;54.55;11.29;100255.38;4985951;28;20046;-81
2022/06/27 07:27:29;;;;;;;12.55;7.10;;;;;;;55.19;10.43;100263.41;4955931;28;20042;-81
2022/06/27 07:29:55;;;;;;;7.80;7.10;;;;;;;55.39;10.31;100251.94;4968499;28;20042;-81
2022/06/27 07:32:21;;;;;;;8.43;7.68;;;;;;;54.47;10.96;100260.47;4986646;28;20096;-81
2022/06/27 07:34:48;;;;;;;8.00;7.30;;;;;;;54.54;10.69;100256.50;4984664;28;20034;-80
2022/06/27 07:37:14;;;;;;;7.70;7.10;;;;;;;55.21;10.75;100244.41;4984130;28;20043;-82
2022/06/27 07:39:41;;;;;;;8.45;7.65;;;;;;;54.65;10.80;100255.25;4981278;28;20045;-83
2022/06/27 07:42:07;;;;;;;8.82;8.07;;;;;;;53.89;11.09;100242.72;4979621;28;20073;-82
2022/06/27 07:44:34;;;;;;;10.35;7.88;;;;;;;51.98;12.36;100229.94;4991259;28;20410;-80
2022/06/27 07:47:03;;;;;;;8.95;8.18;;;;;;;50.08;13.37;100237.53;4991395;28;20046;-82
2022/06/27 07:49:30;;;;;;;8.85;8.15;;;;;;;51.06;13.45;100226.88;4982211;28;20053;-81
2022/06/27 07:51:57;;;;;;;8.25;7.65;;;;;;;52.32;12.49;100237.66;4984341;28;20120;-81
2022/06/27 07:54:24;;;;;;;8.90;7.43;;;;;;;53.23;11.45;100238.56;4978466;28;20042;-82
2022/06/27 07:56:50;;;;;;;8.60;7.88;;;;;;;53.92;10.85;100232.97;4970652;28;20034;-81
2022/06/27 07:59:17;;;;;;;7.40;6.78;;;;;;;54.54;11.23;100248.13;4984616;28;20137;-82
2022/06/27 08:01:44;;;;;;;9.57;6.85;;;;;;;54.51;11.02;100238.44;4982700;28;20515;-82
2022/06/27 08:04:12;;;;;;;9.02;7.05;;;;;;;55.02;10.34;100231.34;4983746;28;20073;-84
2022/06/27 08:06:38;;;;;;;8.45;7.75;;;;;;;54.73;10.42;100209.22;4982138;28;20034;-82
2022/06/27 08:09:06;;;;;;;8.43;7.75;;;;;;;54.55;10.67;100224.75;4983295;28;20045;-81
2022/06/27 08:11:42;;;;;;;9.23;8.45;;;;;;;54.81;10.24;100257.81;4984909;28;20562;-81
2022/06/27 08:14:12;;;;;;;9.48;8.73;;;;;;;52.83;11.77;100219.09;4982145;28;20065;-80
2022/06/27 08:16:40;;;;;;;9.20;7.88;;;;;;;53.12;11.48;100232.25;4952564;28;20043;-80
2022/06/27 08:19:07;;;;;;;9.30;8.60;;;;;;;54.25;10.54;100235.13;4982944;28;20399;-80
2022/06/27 08:21:35;;;;;;;9.60;8.80;;;;;;;54.58;10.18;100216.59;4981421;28;20035;-80
2022/06/27 08:24:03;;;;;;;9.68;8.80;;;;;;;53.39;10.62;100225.41;5006512;28;20093;-80
2022/06/27 08:26:31;;;;;;;9.75;8.98;;;;;;;52.10;11.53;100222.16;4999060;28;20037;-81
2022/06/27 08:29:00;;;;;;;9.63;8.73;;;;;;;52.70;11.63;100224.16;4975243;28;20569;-81
2022/06/27 08:31:27;;;;;;;10.00;9.10;;;;;;;52.68;11.61;100218.06;4973016;28;20044;-82
2022/06/27 08:34:03;;;;;;;10.75;9.70;;;;;;;53.01;11.65;100218.44;4981525;28;20053;-80
2022/06/27 08:36:35;;;;;;;10.82;9.88;;;;;;;52.66;11.52;100220.28;4982588;28;20049;-81
2022/06/27 08:39:18;;;;;;;9.73;8.73;;;;;;;51.23;12.07;100196.19;4989353;28;20046;-83
2022/06/27 08:41:47;;;;;;;15.35;12.07;;;;;;;51.67;11.84;100210.59;4982444;28;20129;-80
2022/06/27 08:44:14;;;;;;;54.15;27.60;;;;;;;51.87;12.85;100187.53;4951995;28;20054;-81
2022/06/27 08:46:46;;;;;;;26.38;17.13;;;;;;;52.79;11.25;100196.63;4979730;28;20177;-80
2022/06/27 08:49:15;;;;;;;27.70;17.20;;;;;;;53.25;11.25;100201.03;4984698;28;20108;-79
2022/06/27 08:51:43;;;;;;;21.67;14.57;;;;;;;53.65;11.76;100208.50;4983367;28;20053;-79
2022/06/27 08:54:09;;;;;;;23.55;15.50;;;;;;;54.04;11.33;100194.47;4984245;28;20046;-80
2022/06/27 08:56:37;;;;;;;15.00;12.68;;;;;;;54.52;10.99;100178.84;4995386;28;20042;-81
2022/06/27 08:59:04;;;;;;;11.70;10.60;;;;;;;54.53;11.07;100211.13;4980031;28;20517;-82
2022/06/27 09:01:30;;;;;;;18.75;13.90;;;;;;;53.81;11.31;100201.66;4986325;28;20050;-79
2022/06/27 09:04:00;;;;;;;11.85;10.48;;;;;;;54.41;10.70;100205.16;4981649;28;20547;-80
2022/06/27 09:06:30;;;;;;;12.52;11.30;;;;;;;54.31;10.49;100190.25;4981963;28;20057;-79
2022/06/27 09:09:09;;;;;;;12.43;10.80;;;;;;;53.80;10.89;100199.19;4968351;28;20380;-78
2022/06/27 09:11:37;;;;;;;;;;;;;;;53.93;10.92;100201.25;4984484;28;20042;-81
2022/06/27 09:14:05;;;;;;;10.73;9.93;;;;;;;54.84;10.88;100182.03;5000539;28;19918;-83
2022/06/27 09:16:33;;;;;;;13.57;12.23;;;;;;;55.74;9.95;100197.81;4987323;28;20140;-81
2022/06/27 09:18:59;;;;;;;11.05;10.10;;;;;;;55.30;10.25;100189.66;4986883;28;20507;-80
2022/06/27 09:21:27;;;;;;;11.00;10.07;;;;;;;55.22;10.21;100191.16;4968121;28;20077;-82
2022/06/27 09:23:58;;;;;;;11.27;10.20;;;;;;;54.76;10.27;100181.59;4986519;28;20679;-81
2022/06/27 09:26:27;;;;;;;10.57;9.77;;;;;;;54.74;10.86;100169.91;4984988;28;20046;-81
2022/06/27 09:29:00;;;;;;;10.20;9.38;;;;;;;55.38;10.30;100186.16;4984509;28;20077;-81
2022/06/27 09:31:27;;;;;;;11.35;10.40;;;;;;;55.67;10.11;100173.13;4989035;28;20188;-82
2022/06/27 09:34:08;;;;;;;10.93;10.02;;;;;;;55.77;10.06;100147.00;4987711;28;20973;-84
2022/06/27 09:36:40;;;;;;;10.60;9.70;;;;;;;55.32;9.74;100153.13;4983844;28;20043;-82
2022/06/27 09:39:10;;;;;;;10.80;9.80;;;;;;;55.25;9.66;100161.88;4985228;28;20077;-81
2022/06/27 09:41:40;;;;;;;11.48;10.48;;;;;;;55.34;9.81;100160.03;4985043;28;20042;-82
2022/06/27 09:44:10;;;;;;;10.30;9.40;;;;;;;55.75;9.85;100157.63;4986588;28;20065;-83
2022/06/27 09:46:42;;;;;;;10.98;9.98;;;;;;;56.11;9.79;100160.53;4986172;28;20141;-84
2022/06/27 09:49:14;;;;;;;14.32;9.63;;;;;;;55.80;9.72;100168.69;4989607;28;20119;-83
2022/06/27 09:51:41;;;;;;;11.05;10.15;;;;;;;54.46;10.29;100168.94;4987889;28;20139;-78
2022/06/27 09:54:11;;;;;;;10.75;9.65;;;;;;;53.78;10.95;100160.53;4977776;28;20054;-80
2022/06/27 09:56:42;;;;;;;11.07;10.15;;;;;;;53.92;10.77;100154.28;4988463;28;20057;-85
2022/06/27 09:59:10;;;;;;;11.15;10.10;;;;;;;53.69;10.43;100145.66;5011390;28;20027;-82
2022/06/27 10:01:37;;;;;;;11.88;9.38;;;;;;;53.35;10.59;100140.97;4990541;28;20108;-80
2022/06/27 10:04:04;;;;;;;11.32;10.25;;;;;;;53.66;10.81;100129.56;4991848;28;20054;-82
2022/06/27 10:06:31;;;;;;;16.42;15.05;;;;;;;54.17;10.76;100154.00;4987607;28;20499;-85
2022/06/27 10:08:58;;;;;;;17.27;15.75;;;;;;;54.12;10.73;100142.91;4985515;28;20447;-85
2022/06/27 10:11:24;;;;;;;13.55;12.50;;;;;;;52.89;10.71;100139.38;4990059;28;20047;-84
2022/06/27 10:14:11;;;;;;;12.90;11.70;;;;;;;52.93;10.86;100155.19;4980101;28;20053;-80
2022/06/27 10:16:57;;;;;;;10.73;9.77;;;;;;;53.35;10.94;100141.81;4984698;28;20049;-84
2022/06/27 10:19:26;;;;;;;11.63;10.68;;;;;;;53.63;10.85;100127.38;4983630;28;20043;-84
2022/06/27 10:21:53;;;;;;;11.90;10.95;;;;;;;53.77;10.76;100144.97;4983316;28;20039;-85
2022/06/27 10:24:21;;;;;;;10.82;9.98;;;;;;;53.63;10.92;100144.88;4982472;28;20042;-82
2022/06/27 10:26:50;;;;;;;11.48;10.48;;;;;;;53.36;11.03;100125.94;4986696;28;20141;-85
2022/06/27 10:29:42;;;;;;;16.65;15.35;;;;;;;51.80;11.29;100121.28;4984593;28;20042;-85
2022/06/27 10:32:43;;;;;;;18.63;17.02;;;;;;;49.48;12.68;100102.22;4984142;28;20438;-84
2022/06/27 10:35:10;;;;;;;13.13;12.13;;;;;;;47.72;13.80;100088.47;4987264;28;20042;-84
2022/06/27 10:37:39;;;;;;;10.90;9.80;;;;;;;46.61;14.92;100089.63;4986339;28;20046;-84
2022/06/27 10:40:20;;;;;;;10.52;9.63;;;;;;;45.84;15.87;100116.31;4984326;28;20384;-83
2022/06/27 10:42:48;;;;;;;10.55;9.63;;;;;;;45.30;16.46;100121.06;4983871;28;20610;-83
2022/06/27 10:45:20;;;;;;;11.45;10.35;;;;;;;44.67;17.20;100124.91;4985821;28;20047;-83
2022/06/27 10:47:51;;;;;;;11.85;10.95;;;;;;;43.79;17.53;100083.94;4989180;28;20034;-78
2022/06/27 10:50:20;;;;;;;13.30;11.20;;;;;;;42.99;18.80;100084.56;4993005;28;20081;-83
2022/06/27 10:52:46;;;;;;;16.52;10.55;;;;;;;42.19;19.39;100067.50;4989092;28;20034;-80
2022/06/27 10:55:32;;;;;;;11.90;10.18;;;;;;;41.72;19.69;100118.66;4988568;28;20057;-86
2022/06/27 10:57:58;;;;;;;12.07;10.93;;;;;;;41.09;20.65;100104.31;4982954;28;20511;-82
2022/06/27 11:00:43;;;;;;;10.35;9.45;;;;;;;40.80;21.09;100114.53;4972695;28;20050;-84
2022/06/27 11:03:20;;;;;;;10.93;9.30;;;;;;;40.24;21.16;100070.03;4987314;28;20046;-83
2022/06/27 11:06:00;;;;;;;10.57;9.40;;;;;;;40.38;21.52;100120.00;4999957;28;20064;-83
2022/06/27 11:08:27;;;;;;;12.90;9.73;;;;;;;40.24;21.67;100110.09;4987404;28;20050;-84
2022/06/27 11:10:53;;;;;;;12.68;9.52;;;;;;;40.02;21.86;100104.69;4983696;28;20441;-84
2022/06/27 11:13:42;;;;;;;10.52;9.55;;;;;;;39.68;22.47;100100.88;4984776;28;20089;-86
2022/06/27 11:16:13;;;;;;;11.93;10.75;;;;;;;39.35;22.57;100096.84;4983669;28;20034;-84
2022/06/27 11:18:49;;;;;;;11.02;10.18;;;;;;;39.09;23.29;100092.78;4984244;28;20034;-84
2022/06/27 11:21:23;;;;;;;12.38;10.63;;;;;;;38.84;23.47;100084.19;4984136;28;20136;-84
2022/06/27 11:23:53;;;;;;;13.07;10.00;;;;;;;38.97;23.76;100099.81;4985284;28;20157;-84
2022/06/27 11:26:22;;;;;;;11.32;10.23;;;;;;;38.87;24.09;100106.38;4954227;28;20057;-82
2022/06/27 11:34:19;;;;;;;10.60;9.80;;;;;;;38.40;24.59;100092.22;4999620;28;20046;-85